sensor_id;sensor_type;location;lat;lon;timestamp;pressure;altitude;pressure_sealevel;temperature
73685;BMP280;61985;51.070;14.064;2023-04-16T00:00:48;98420.47;;;4.46
73685;BMP280;61985;51.070;14.064;2023-04-16T00:03:14;98429.59;;;4.45
73685;BMP280;61985;51.070;14.064;2023-04-16T00:05:39;98422.75;;;4.48
73685;BMP280;61985;51.070;14.064;2023-04-16T00:08:05;98418.19;;;4.23
73685;BMP280;61985;51.070;14.064;2023-04-16T00:10:30;98432.69;;;4.15
73685;BMP280;61985;51.070;14.064;2023-04-16T00:12:55;98433.44;;;4.12
73685;BMP280;61985;51.070;14.064;2023-04-16T00:15:21;98439.19;;;4.17
73685;BMP280;61985;51.070;14.064;2023-04-16T00:17:46;98434.59;;;4.04
73685;BMP280;61985;51.070;14.064;2023-04-16T00:20:11;98441.84;;;3.96
73685;BMP280;61985;51.070;14.064;2023-04-16T00:22:38;98441.06;;;3.74
73685;BMP280;61985;51.070;14.064;2023-04-16T00:25:03;98436.09;;;3.76
73685;BMP280;61985;51.070;14.064;2023-04-16T00:27:29;98441.84;;;3.78
73685;BMP280;61985;51.070;14.064;2023-04-16T00:29:54;98442.91;;;3.59
73685;BMP280;61985;51.070;14.064;2023-04-16T00:32:20;98444.09;;;3.69
73685;BMP280;61985;51.070;14.064;2023-04-16T00:34:45;98443.28;;;3.54
73685;BMP280;61985;51.070;14.064;2023-04-16T00:37:10;98448.59;;;3.39
73685;BMP280;61985;51.070;14.064;2023-04-16T00:39:36;98443.22;;;3.32
73685;BMP280;61985;51.070;14.064;2023-04-16T00:42:01;98446.22;;;3.20
73685;BMP280;61985;51.070;14.064;2023-04-16T00:44:26;98441.63;;;3.13
73685;BMP280;61985;51.070;14.064;2023-04-16T00:46:54;98442.41;;;3.17
73685;BMP280;61985;51.070;14.064;2023-04-16T00:49:19;98441.22;;;3.11
73685;BMP280;61985;51.070;14.064;2023-04-16T00:51:45;98443.63;;;3.38
73685;BMP280;61985;51.070;14.064;2023-04-16T00:54:10;98446.84;;;2.99
73685;BMP280;61985;51.070;14.064;2023-04-16T00:56:36;98439.94;;;2.83
73685;BMP280;61985;51.070;14.064;2023-04-16T00:59:02;98441.84;;;2.79
73685;BMP280;61985;51.070;14.064;2023-04-16T01:01:27;98446.41;;;2.82
73685;BMP280;61985;51.070;14.064;2023-04-16T01:03:53;98442.25;;;2.85
73685;BMP280;61985;51.070;14.064;2023-04-16T01:06:18;98446.06;;;2.87
73685;BMP280;61985;51.070;14.064;2023-04-16T01:08:45;98443.03;;;2.85
73685;BMP280;61985;51.070;14.064;2023-04-16T01:11:10;98438.44;;;2.82
73685;BMP280;61985;51.070;14.064;2023-04-16T01:13:36;98437.66;;;2.78
73685;BMP280;61985;51.070;14.064;2023-04-16T01:16:07;98438.75;;;2.70
73685;BMP280;61985;51.070;14.064;2023-04-16T01:18:33;98444.06;;;2.70
73685;BMP280;61985;51.070;14.064;2023-04-16T01:20:59;98444.81;;;2.70
73685;BMP280;61985;51.070;14.064;2023-04-16T01:23:24;98446.34;;;2.71
73685;BMP280;61985;51.070;14.064;2023-04-16T01:25:50;98450.94;;;2.75
73685;BMP280;61985;51.070;14.064;2023-04-16T01:28:16;98453.63;;;2.78
73685;BMP280;61985;51.070;14.064;2023-04-16T01:30:41;98447.84;;;2.65
73685;BMP280;61985;51.070;14.064;2023-04-16T01:33:09;98460.34;;;2.58
73685;BMP280;61985;51.070;14.064;2023-04-16T01:35:35;98461.50;;;2.60
73685;BMP280;61985;51.070;14.064;2023-04-16T01:38:00;98459.53;;;2.53
73685;BMP280;61985;51.070;14.064;2023-04-16T01:40:25;98459.94;;;2.56
73685;BMP280;61985;51.070;14.064;2023-04-16T01:42:51;98458.06;;;2.60
73685;BMP280;61985;51.070;14.064;2023-04-16T01:45:16;98459.44;;;2.43
73685;BMP280;61985;51.070;14.064;2023-04-16T01:47:41;98449.59;;;2.43
73685;BMP280;61985;51.070;14.064;2023-04-16T01:50:08;98461.34;;;2.39
73685;BMP280;61985;51.070;14.064;2023-04-16T01:52:33;98453.00;;;2.44
73685;BMP280;61985;51.070;14.064;2023-04-16T01:54:58;98453.38;;;2.42
73685;BMP280;61985;51.070;14.064;2023-04-16T01:57:24;98446.88;;;2.36
73685;BMP280;61985;51.070;14.064;2023-04-16T01:59:49;98452.50;;;2.24
73685;BMP280;61985;51.070;14.064;2023-04-16T02:02:15;98452.50;;;2.24
73685;BMP280;61985;51.070;14.064;2023-04-16T02:04:43;98448.25;;;2.15
73685;BMP280;61985;51.070;14.064;2023-04-16T02:07:09;98453.81;;;2.03
73685;BMP280;61985;51.070;14.064;2023-04-16T02:09:36;98451.56;;;2.05
73685;BMP280;61985;51.070;14.064;2023-04-16T02:12:02;98447.06;;;2.13
73685;BMP280;61985;51.070;14.064;2023-04-16T02:14:28;98454.66;;;2.11
73685;BMP280;61985;51.070;14.064;2023-04-16T02:16:53;98461.47;;;2.08
73685;BMP280;61985;51.070;14.064;2023-04-16T02:19:19;98461.81;;;2.07
73685;BMP280;61985;51.070;14.064;2023-04-16T02:21:44;98467.41;;;1.98
73685;BMP280;61985;51.070;14.064;2023-04-16T02:24:10;98464.31;;;1.89
73685;BMP280;61985;51.070;14.064;2023-04-16T02:26:35;98470.38;;;1.89
73685;BMP280;61985;51.070;14.064;2023-04-16T02:29:00;98462.06;;;1.91
73685;BMP280;61985;51.070;14.064;2023-04-16T02:31:26;98472.72;;;1.98
73685;BMP280;61985;51.070;14.064;2023-04-16T02:33:52;98475.03;;;1.99
73685;BMP280;61985;51.070;14.064;2023-04-16T02:36:18;98476.94;;;1.99
73685;BMP280;61985;51.070;14.064;2023-04-16T02:38:43;98476.84;;;1.92
73685;BMP280;61985;51.070;14.064;2023-04-16T02:41:08;98482.59;;;1.97
73685;BMP280;61985;51.070;14.064;2023-04-16T02:43:34;98487.66;;;2.06
73685;BMP280;61985;51.070;14.064;2023-04-16T02:45:59;98489.75;;;1.90
73685;BMP280;61985;51.070;14.064;2023-04-16T02:48:24;98483.22;;;1.80
73685;BMP280;61985;51.070;14.064;2023-04-16T02:50:50;98490.13;;;1.88
73685;BMP280;61985;51.070;14.064;2023-04-16T02:53:15;98488.56;;;1.84
73685;BMP280;61985;51.070;14.064;2023-04-16T02:55:41;98484.72;;;1.81
73685;BMP280;61985;51.070;14.064;2023-04-16T02:58:06;98488.56;;;1.84
73685;BMP280;61985;51.070;14.064;2023-04-16T03:00:31;98490.03;;;1.81
73685;BMP280;61985;51.070;14.064;2023-04-16T03:02:57;98498.06;;;1.85
73685;BMP280;61985;51.070;14.064;2023-04-16T03:05:22;98492.75;;;1.85
73685;BMP280;61985;51.070;14.064;2023-04-16T03:07:47;98489.91;;;1.70
73685;BMP280;61985;51.070;14.064;2023-04-16T03:10:14;98486.59;;;1.77
73685;BMP280;61985;51.070;14.064;2023-04-16T03:12:40;98488.41;;;1.69
73685;BMP280;61985;51.070;14.064;2023-04-16T03:15:05;98499.81;;;1.73
73685;BMP280;61985;51.070;14.064;2023-04-16T03:17:31;98495.94;;;1.67
73685;BMP280;61985;51.070;14.064;2023-04-16T03:19:56;98496.53;;;1.53
73685;BMP280;61985;51.070;14.064;2023-04-16T03:22:22;98499.16;;;1.50
73685;BMP280;61985;51.070;14.064;2023-04-16T03:24:47;98500.13;;;1.34
73685;BMP280;61985;51.070;14.064;2023-04-16T03:27:12;98506.22;;;1.38
73685;BMP280;61985;51.070;14.064;2023-04-16T03:29:38;98510.75;;;1.34
73685;BMP280;61985;51.070;14.064;2023-04-16T03:32:03;98503.09;;;1.29
73685;BMP280;61985;51.070;14.064;2023-04-16T03:34:28;98508.09;;;1.38
73685;BMP280;61985;51.070;14.064;2023-04-16T03:36:54;98506.66;;;1.44
73685;BMP280;61985;51.070;14.064;2023-04-16T03:39:19;98506.53;;;1.63
73685;BMP280;61985;51.070;14.064;2023-04-16T03:41:44;98515.00;;;1.42
73685;BMP280;61985;51.070;14.064;2023-04-16T03:44:10;98523.63;;;1.36
73685;BMP280;61985;51.070;14.064;2023-04-16T03:46:35;98520.63;;;1.37
73685;BMP280;61985;51.070;14.064;2023-04-16T03:49:00;98531.22;;;1.34
73685;BMP280;61985;51.070;14.064;2023-04-16T03:51:26;98525.94;;;1.37
73685;BMP280;61985;51.070;14.064;2023-04-16T03:53:51;98529.78;;;1.40
73685;BMP280;61985;51.070;14.064;2023-04-16T03:56:17;98542.63;;;1.38
73685;BMP280;61985;51.070;14.064;2023-04-16T03:58:42;98541.25;;;1.48
73685;BMP280;61985;51.070;14.064;2023-04-16T04:01:07;98548.06;;;1.49
73685;BMP280;61985;51.070;14.064;2023-04-16T04:03:33;98546.59;;;1.51
73685;BMP280;61985;51.070;14.064;2023-04-16T04:05:58;98550.72;;;1.49
73685;BMP280;61985;51.070;14.064;2023-04-16T04:08:23;98558.19;;;1.66
73685;BMP280;61985;51.070;14.064;2023-04-16T04:10:48;98548.78;;;1.45
73685;BMP280;61985;51.070;14.064;2023-04-16T04:13:15;98561.28;;;1.41
73685;BMP280;61985;51.070;14.064;2023-04-16T04:15:40;98563.66;;;1.50
73685;BMP280;61985;51.070;14.064;2023-04-16T04:18:06;98556.41;;;1.47
73685;BMP280;61985;51.070;14.064;2023-04-16T04:20:31;98565.19;;;1.51
73685;BMP280;61985;51.070;14.064;2023-04-16T04:22:56;98557.91;;;1.44
73685;BMP280;61985;51.070;14.064;2023-04-16T04:25:22;98560.59;;;1.48
73685;BMP280;61985;51.070;14.064;2023-04-16T04:27:47;98566.78;;;1.56
73685;BMP280;61985;51.070;14.064;2023-04-16T04:30:13;98564.97;;;1.63
73685;BMP280;61985;51.070;14.064;2023-04-16T04:32:38;98565.13;;;1.74
73685;BMP280;61985;51.070;14.064;2023-04-16T04:35:04;98571.91;;;1.72
73685;BMP280;61985;51.070;14.064;2023-04-16T04:37:29;98579.56;;;1.77
73685;BMP280;61985;51.070;14.064;2023-04-16T04:39:55;98570.09;;;1.79
73685;BMP280;61985;51.070;14.064;2023-04-16T04:42:20;98569.09;;;1.88
73685;BMP280;61985;51.070;14.064;2023-04-16T04:44:46;98568.34;;;1.91
73685;BMP280;61985;51.070;14.064;2023-04-16T04:47:12;98578.72;;;2.03
73685;BMP280;61985;51.070;14.064;2023-04-16T04:49:38;98579.16;;;2.09
73685;BMP280;61985;51.070;14.064;2023-04-16T04:52:03;98580.78;;;2.17
73685;BMP280;61985;51.070;14.064;2023-04-16T04:54:30;98580.13;;;2.27
73685;BMP280;61985;51.070;14.064;2023-04-16T04:56:55;98591.19;;;2.33
73685;BMP280;61985;51.070;14.064;2023-04-16T04:59:22;98590.81;;;2.34
73685;BMP280;61985;51.070;14.064;2023-04-16T05:01:47;98600.00;;;2.41
73685;BMP280;61985;51.070;14.064;2023-04-16T05:04:13;98594.09;;;2.58
73685;BMP280;61985;51.070;14.064;2023-04-16T05:06:38;98590.78;;;2.72
73685;BMP280;61985;51.070;14.064;2023-04-16T05:09:03;98592.69;;;2.71
73685;BMP280;61985;51.070;14.064;2023-04-16T05:11:29;98595.03;;;2.80
73685;BMP280;61985;51.070;14.064;2023-04-16T05:13:54;98602.66;;;2.82
73685;BMP280;61985;51.070;14.064;2023-04-16T05:16:20;98608.44;;;2.91
73685;BMP280;61985;51.070;14.064;2023-04-16T05:18:45;98611.88;;;2.99
73685;BMP280;61985;51.070;14.064;2023-04-16T05:21:10;98604.78;;;3.14
73685;BMP280;61985;51.070;14.064;2023-04-16T05:23:35;98603.00;;;3.28
73685;BMP280;61985;51.070;14.064;2023-04-16T05:26:01;98600.78;;;3.38
73685;BMP280;61985;51.070;14.064;2023-04-16T05:28:26;98608.03;;;3.44
73685;BMP280;61985;51.070;14.064;2023-04-16T05:30:51;98608.13;;;3.62
73685;BMP280;61985;51.070;14.064;2023-04-16T05:33:17;98613.16;;;3.82
73685;BMP280;61985;51.070;14.064;2023-04-16T05:35:42;98610.94;;;4.02
73685;BMP280;61985;51.070;14.064;2023-04-16T05:38:07;98604.53;;;4.28
73685;BMP280;61985;51.070;14.064;2023-04-16T05:40:33;98614.09;;;4.51
73685;BMP280;61985;51.070;14.064;2023-04-16T05:42:58;98616.38;;;4.70
73685;BMP280;61985;51.070;14.064;2023-04-16T05:45:23;98620.59;;;4.86
73685;BMP280;61985;51.070;14.064;2023-04-16T05:47:49;98625.16;;;4.89
73685;BMP280;61985;51.070;14.064;2023-04-16T05:50:14;98620.97;;;4.88
73685;BMP280;61985;51.070;14.064;2023-04-16T05:52:39;98628.97;;;4.95
73685;BMP280;61985;51.070;14.064;2023-04-16T05:55:05;98625.94;;;5.11
73685;BMP280;61985;51.070;14.064;2023-04-16T05:57:31;98630.13;;;5.12
73685;BMP280;61985;51.070;14.064;2023-04-16T05:59:57;98627.06;;;5.13
73685;BMP280;61985;51.070;14.064;2023-04-16T06:02:22;98636.25;;;5.12
73685;BMP280;61985;51.070;14.064;2023-04-16T06:04:47;98631.28;;;5.11
73685;BMP280;61985;51.070;14.064;2023-04-16T06:07:14;98642.31;;;5.20
73685;BMP280;61985;51.070;14.064;2023-04-16T06:09:39;98646.91;;;5.23
73685;BMP280;61985;51.070;14.064;2023-04-16T06:12:04;98643.06;;;5.21
73685;BMP280;61985;51.070;14.064;2023-04-16T06:14:30;98649.19;;;5.25
73685;BMP280;61985;51.070;14.064;2023-04-16T06:16:55;98641.91;;;5.36
73685;BMP280;61985;51.070;14.064;2023-04-16T06:19:20;98648.38;;;5.42
73685;BMP280;61985;51.070;14.064;2023-04-16T06:21:46;98651.41;;;5.48
73685;BMP280;61985;51.070;14.064;2023-04-16T06:24:11;98657.53;;;5.48
73685;BMP280;61985;51.070;14.064;2023-04-16T06:26:37;98662.13;;;5.44
73685;BMP280;61985;51.070;14.064;2023-04-16T06:29:02;98657.88;;;5.54
73685;BMP280;61985;51.070;14.064;2023-04-16T06:31:28;98651.38;;;5.59
73685;BMP280;61985;51.070;14.064;2023-04-16T06:33:54;98650.22;;;5.67
73685;BMP280;61985;51.070;14.064;2023-04-16T06:36:19;98659.34;;;5.77
73685;BMP280;61985;51.070;14.064;2023-04-16T06:38:45;98663.13;;;5.90
73685;BMP280;61985;51.070;14.064;2023-04-16T06:41:10;98657.34;;;6.02
73685;BMP280;61985;51.070;14.064;2023-04-16T06:43:35;98659.25;;;6.05
73685;BMP280;61985;51.070;14.064;2023-04-16T06:46:01;98661.09;;;6.19
73685;BMP280;61985;51.070;14.064;2023-04-16T06:48:26;98674.00;;;6.32
73685;BMP280;61985;51.070;14.064;2023-04-16T06:50:52;98673.16;;;6.42
73685;BMP280;61985;51.070;14.064;2023-04-16T06:53:17;98675.78;;;6.56
73685;BMP280;61985;51.070;14.064;2023-04-16T06:55:42;98674.50;;;6.68
73685;BMP280;61985;51.070;14.064;2023-04-16T06:58:08;98677.47;;;6.81
73685;BMP280;61985;51.070;14.064;2023-04-16T07:00:33;98678.97;;;6.89
73685;BMP280;61985;51.070;14.064;2023-04-16T07:02:59;98682.75;;;6.95
73685;BMP280;61985;51.070;14.064;2023-04-16T07:05:25;98682.69;;;7.02
73685;BMP280;61985;51.070;14.064;2023-04-16T07:07:51;98675.03;;;7.05
73685;BMP280;61985;51.070;14.064;2023-04-16T07:10:16;98674.19;;;7.11
73685;BMP280;61985;51.070;14.064;2023-04-16T07:12:42;98679.50;;;7.15
73685;BMP280;61985;51.070;14.064;2023-04-16T07:15:08;98677.91;;;7.21
73685;BMP280;61985;51.070;14.064;2023-04-16T07:17:34;98678.00;;;7.14
73685;BMP280;61985;51.070;14.064;2023-04-16T07:19:59;98676.75;;;7.22
73685;BMP280;61985;51.070;14.064;2023-04-16T07:22:24;98680.06;;;7.37
73685;BMP280;61985;51.070;14.064;2023-04-16T07:24:50;98690.75;;;7.40
73685;BMP280;61985;51.070;14.064;2023-04-16T07:27:15;98688.41;;;7.46
73685;BMP280;61985;51.070;14.064;2023-04-16T07:29:41;98681.09;;;7.47
73685;BMP280;61985;51.070;14.064;2023-04-16T07:32:07;98684.81;;;7.56
73685;BMP280;61985;51.070;14.064;2023-04-16T07:34:32;98691.94;;;7.70
73685;BMP280;61985;51.070;14.064;2023-04-16T07:36:58;98692.34;;;7.72
73685;BMP280;61985;51.070;14.064;2023-04-16T07:39:23;98690.00;;;7.74
73685;BMP280;61985;51.070;14.064;2023-04-16T07:41:48;98692.50;;;7.89
73685;BMP280;61985;51.070;14.064;2023-04-16T07:44:14;98696.16;;;8.02
73685;BMP280;61985;51.070;14.064;2023-04-16T07:46:39;98701.00;;;8.14
73685;BMP280;61985;51.070;14.064;2023-04-16T07:49:04;98699.03;;;8.19
73685;BMP280;61985;51.070;14.064;2023-04-16T07:51:30;98699.91;;;8.39
73685;BMP280;61985;51.070;14.064;2023-04-16T07:53:55;98703.66;;;8.45
73685;BMP280;61985;51.070;14.064;2023-04-16T07:56:20;98694.66;;;8.55
73685;BMP280;61985;51.070;14.064;2023-04-16T07:58:46;98698.66;;;8.71
73685;BMP280;61985;51.070;14.064;2023-04-16T08:01:11;98704.16;;;8.87
73685;BMP280;61985;51.070;14.064;2023-04-16T08:03:36;98700.13;;;8.99
73685;BMP280;61985;51.070;14.064;2023-04-16T08:06:02;98710.81;;;9.03
73685;BMP280;61985;51.070;14.064;2023-04-16T08:08:27;98709.41;;;9.18
73685;BMP280;61985;51.070;14.064;2023-04-16T08:10:53;98710.97;;;9.16
73685;BMP280;61985;51.070;14.064;2023-04-16T08:13:22;98707.34;;;9.26
73685;BMP280;61985;51.070;14.064;2023-04-16T08:15:48;98715.91;;;9.41
73685;BMP280;61985;51.070;14.064;2023-04-16T08:18:13;98718.13;;;9.46
73685;BMP280;61985;51.070;14.064;2023-04-16T08:20:40;98713.19;;;9.61
73685;BMP280;61985;51.070;14.064;2023-04-16T08:23:05;98723.31;;;9.77
73685;BMP280;61985;51.070;14.064;2023-04-16T08:25:31;98726.44;;;9.91
73685;BMP280;61985;51.070;14.064;2023-04-16T08:27:56;98725.81;;;10.04
73685;BMP280;61985;51.070;14.064;2023-04-16T08:30:21;98725.06;;;10.03
73685;BMP280;61985;51.070;14.064;2023-04-16T08:32:47;98732.81;;;10.18
73685;BMP280;61985;51.070;14.064;2023-04-16T08:35:12;98736.88;;;10.26
73685;BMP280;61985;51.070;14.064;2023-04-16T08:37:37;98747.06;;;10.35
73685;BMP280;61985;51.070;14.064;2023-04-16T08:40:12;98747.84;;;10.35
73685;BMP280;61985;51.070;14.064;2023-04-16T08:42:48;98748.03;;;10.44
73685;BMP280;61985;51.070;14.064;2023-04-16T08:45:17;98760.22;;;10.49
73685;BMP280;61985;51.070;14.064;2023-04-16T08:47:52;98753.81;;;10.59
73685;BMP280;61985;51.070;14.064;2023-04-16T08:50:27;98758.22;;;10.69
73685;BMP280;61985;51.070;14.064;2023-04-16T08:52:58;98751.41;;;10.81
73685;BMP280;61985;51.070;14.064;2023-04-16T08:55:31;98753.47;;;10.90
73685;BMP280;61985;51.070;14.064;2023-04-16T08:58:00;98760.31;;;10.95
73685;BMP280;61985;51.070;14.064;2023-04-16T09:00:35;98761.44;;;10.81
73685;BMP280;61985;51.070;14.064;2023-04-16T09:03:01;98762.59;;;10.80
73685;BMP280;61985;51.070;14.064;2023-04-16T09:05:28;98761.44;;;10.97
73685;BMP280;61985;51.070;14.064;2023-04-16T09:07:53;98761.66;;;11.03
73685;BMP280;61985;51.070;14.064;2023-04-16T09:10:19;98774.63;;;10.92
73685;BMP280;61985;51.070;14.064;2023-04-16T09:12:44;98764.53;;;10.96
73685;BMP280;61985;51.070;14.064;2023-04-16T09:15:11;98767.28;;;10.92
73685;BMP280;61985;51.070;14.064;2023-04-16T09:17:37;98763.75;;;11.12
73685;BMP280;61985;51.070;14.064;2023-04-16T09:20:07;98775.38;;;11.25
73685;BMP280;61985;51.070;14.064;2023-04-16T09:22:34;98778.84;;;11.38
73685;BMP280;61985;51.070;14.064;2023-04-16T09:24:59;98776.03;;;11.58
73685;BMP280;61985;51.070;14.064;2023-04-16T09:27:25;98771.97;;;11.66
73685;BMP280;61985;51.070;14.064;2023-04-16T09:29:51;98768.97;;;11.77
73685;BMP280;61985;51.070;14.064;2023-04-16T09:32:16;98776.75;;;11.88
73685;BMP280;61985;51.070;14.064;2023-04-16T09:35:01;98772.53;;;12.00
73685;BMP280;61985;51.070;14.064;2023-04-16T09:37:29;98783.69;;;12.15
73685;BMP280;61985;51.070;14.064;2023-04-16T09:39:59;98773.72;;;11.99
73685;BMP280;61985;51.070;14.064;2023-04-16T09:42:30;98788.13;;;12.34
73685;BMP280;61985;51.070;14.064;2023-04-16T09:44:56;98785.84;;;12.58
73685;BMP280;61985;51.070;14.064;2023-04-16T09:47:23;98783.34;;;12.77
73685;BMP280;61985;51.070;14.064;2023-04-16T09:49:48;98789.66;;;12.61
73685;BMP280;61985;51.070;14.064;2023-04-16T09:52:16;98788.97;;;12.82
73685;BMP280;61985;51.070;14.064;2023-04-16T09:54:51;98793.69;;;12.91
73685;BMP280;61985;51.070;14.064;2023-04-16T09:57:21;98791.50;;;12.99
73685;BMP280;61985;51.070;14.064;2023-04-16T09:59:51;98792.63;;;13.23
73685;BMP280;61985;51.070;14.064;2023-04-16T10:02:16;98784.81;;;13.25
73685;BMP280;61985;51.070;14.064;2023-04-16T10:05:01;98793.78;;;13.35
73685;BMP280;61985;51.070;14.064;2023-04-16T10:07:28;98786.84;;;13.56
73685;BMP280;61985;51.070;14.064;2023-04-16T10:09:54;98792.69;;;13.33
73685;BMP280;61985;51.070;14.064;2023-04-16T10:12:23;98790.72;;;13.33
73685;BMP280;61985;51.070;14.064;2023-04-16T10:14:48;98793.41;;;13.46
73685;BMP280;61985;51.070;14.064;2023-04-16T10:17:15;98789.41;;;13.38
73685;BMP280;61985;51.070;14.064;2023-04-16T10:19:46;98792.88;;;13.60
73685;BMP280;61985;51.070;14.064;2023-04-16T10:22:12;98800.81;;;13.55
73685;BMP280;61985;51.070;14.064;2023-04-16T10:24:38;98791.63;;;13.52
73685;BMP280;61985;51.070;14.064;2023-04-16T10:27:05;98798.88;;;13.55
73685;BMP280;61985;51.070;14.064;2023-04-16T10:29:30;98802.38;;;13.87
73685;BMP280;61985;51.070;14.064;2023-04-16T10:31:57;98798.50;;;13.97
73685;BMP280;61985;51.070;14.064;2023-04-16T10:34:24;98793.81;;;13.89
73685;BMP280;61985;51.070;14.064;2023-04-16T10:36:51;98805.72;;;13.91
73685;BMP280;61985;51.070;14.064;2023-04-16T10:39:21;98803.94;;;13.97
73685;BMP280;61985;51.070;14.064;2023-04-16T10:41:47;98795.56;;;14.04
73685;BMP280;61985;51.070;14.064;2023-04-16T10:44:16;98800.13;;;14.17
73685;BMP280;61985;51.070;14.064;2023-04-16T10:46:43;98797.78;;;14.37
73685;BMP280;61985;51.070;14.064;2023-04-16T10:49:14;98799.31;;;14.38
73685;BMP280;61985;51.070;14.064;2023-04-16T10:51:40;98795.69;;;14.41
73685;BMP280;61985;51.070;14.064;2023-04-16T10:56:39;98797.53;;;14.72
73685;BMP280;61985;51.070;14.064;2023-04-16T10:59:05;98798.19;;;14.85
73685;BMP280;61985;51.070;14.064;2023-04-16T11:01:33;98804.50;;;14.82
73685;BMP280;61985;51.070;14.064;2023-04-16T11:09:50;98803.31;;;15.02
73685;BMP280;61985;51.070;14.064;2023-04-16T11:12:36;98803.91;;;14.97
73685;BMP280;61985;51.070;14.064;2023-04-16T11:15:06;98801.81;;;15.10
73685;BMP280;61985;51.070;14.064;2023-04-16T11:20:05;98806.03;;;15.20
73685;BMP280;61985;51.070;14.064;2023-04-16T11:22:34;98805.72;;;14.91
73685;BMP280;61985;51.070;14.064;2023-04-16T11:25:01;98801.66;;;15.04
73685;BMP280;61985;51.070;14.064;2023-04-16T11:27:26;98815.09;;;15.45
73685;BMP280;61985;51.070;14.064;2023-04-16T11:30:03;98804.66;;;15.53
73685;BMP280;61985;51.070;14.064;2023-04-16T11:32:33;98806.47;;;15.46
73685;BMP280;61985;51.070;14.064;2023-04-16T11:35:01;98808.13;;;15.62
73685;BMP280;61985;51.070;14.064;2023-04-16T11:37:35;98801.72;;;15.84
73685;BMP280;61985;51.070;14.064;2023-04-16T11:40:03;98809.13;;;16.17
73685;BMP280;61985;51.070;14.064;2023-04-16T11:42:31;98804.06;;;15.91
73685;BMP280;61985;51.070;14.064;2023-04-16T11:44:58;98807.78;;;15.69
73685;BMP280;61985;51.070;14.064;2023-04-16T11:47:28;98806.25;;;15.78
73685;BMP280;61985;51.070;14.064;2023-04-16T11:49:54;98801.56;;;15.78
73685;BMP280;61985;51.070;14.064;2023-04-16T11:52:30;98808.78;;;16.24
73685;BMP280;61985;51.070;14.064;2023-04-16T11:54:57;98803.00;;;16.07
73685;BMP280;61985;51.070;14.064;2023-04-16T11:57:30;98802.59;;;16.23
73685;BMP280;61985;51.070;14.064;2023-04-16T11:59:56;98807.94;;;16.42
73685;BMP280;61985;51.070;14.064;2023-04-16T12:05:02;98807.50;;;17.06
73685;BMP280;61985;51.070;14.064;2023-04-16T12:07:27;98804.69;;;17.16
73685;BMP280;61985;51.070;14.064;2023-04-16T12:10:04;98801.88;;;17.25
73685;BMP280;61985;51.070;14.064;2023-04-16T12:12:30;98811.19;;;17.18
73685;BMP280;61985;51.070;14.064;2023-04-16T12:14:56;98805.44;;;17.16
73685;BMP280;61985;51.070;14.064;2023-04-16T12:17:24;98808.91;;;17.31
73685;BMP280;61985;51.070;14.064;2023-04-16T12:19:58;98814.69;;;17.33
73685;BMP280;61985;51.070;14.064;2023-04-16T12:22:36;98811.69;;;16.92
73685;BMP280;61985;51.070;14.064;2023-04-16T12:25:06;98813.38;;;17.05
73685;BMP280;61985;51.070;14.064;2023-04-16T12:27:48;98815.94;;;17.08
73685;BMP280;61985;51.070;14.064;2023-04-16T12:30:18;98812.09;;;17.15
73685;BMP280;61985;51.070;14.064;2023-04-16T12:32:46;98820.44;;;17.11
73685;BMP280;61985;51.070;14.064;2023-04-16T12:35:12;98817.75;;;17.26
73685;BMP280;61985;51.070;14.064;2023-04-16T12:37:38;98816.22;;;17.10
73685;BMP280;61985;51.070;14.064;2023-04-16T12:40:05;98815.28;;;17.13
73685;BMP280;61985;51.070;14.064;2023-04-16T12:42:31;98819.03;;;17.16
73685;BMP280;61985;51.070;14.064;2023-04-16T12:45:04;98811.66;;;17.17
73685;BMP280;61985;51.070;14.064;2023-04-16T12:47:30;98811.44;;;17.50
73685;BMP280;61985;51.070;14.064;2023-04-16T12:49:56;98805.81;;;17.68
73685;BMP280;61985;51.070;14.064;2023-04-16T12:52:23;98807.91;;;17.44
73685;BMP280;61985;51.070;14.064;2023-04-16T12:54:48;98809.38;;;17.15
73685;BMP280;61985;51.070;14.064;2023-04-16T12:57:14;98806.63;;;17.00
73685;BMP280;61985;51.070;14.064;2023-04-16T12:59:40;98811.69;;;16.92
73685;BMP280;61985;51.070;14.064;2023-04-16T13:02:05;98806.50;;;16.80
73685;BMP280;61985;51.070;14.064;2023-04-16T13:04:31;98808.78;;;16.72
73685;BMP280;61985;51.070;14.064;2023-04-16T13:06:56;98817.56;;;16.76
73685;BMP280;61985;51.070;14.064;2023-04-16T13:09:22;98815.13;;;16.54
73685;BMP280;61985;51.070;14.064;2023-04-16T13:11:47;98809.03;;;16.35
73685;BMP280;61985;51.070;14.064;2023-04-16T13:14:12;98805.84;;;16.37
73685;BMP280;61985;51.070;14.064;2023-04-16T13:16:38;98805.03;;;16.45
73685;BMP280;61985;51.070;14.064;2023-04-16T13:19:04;98810.59;;;16.51
73685;BMP280;61985;51.070;14.064;2023-04-16T13:21:29;98812.75;;;16.47
73685;BMP280;61985;51.070;14.064;2023-04-16T13:23:55;98811.09;;;16.40
73685;BMP280;61985;51.070;14.064;2023-04-16T13:26:21;98812.03;;;16.37
73685;BMP280;61985;51.070;14.064;2023-04-16T13:28:46;98821.47;;;16.27
73685;BMP280;61985;51.070;14.064;2023-04-16T13:31:11;98812.03;;;16.37
73685;BMP280;61985;51.070;14.064;2023-04-16T13:33:37;98820.03;;;16.41
73685;BMP280;61985;51.070;14.064;2023-04-16T13:36:03;98814.25;;;15.72
73685;BMP280;61985;51.070;14.064;2023-04-16T13:38:28;98819.59;;;15.48
73685;BMP280;61985;51.070;14.064;2023-04-16T13:40:53;98824.72;;;15.18
73685;BMP280;61985;51.070;14.064;2023-04-16T13:43:47;98823.78;;;14.94
73685;BMP280;61985;51.070;14.064;2023-04-16T13:46:22;98813.72;;;14.94
73685;BMP280;61985;51.070;14.064;2023-04-16T13:48:47;98820.78;;;14.82
73685;BMP280;61985;51.070;14.064;2023-04-16T13:51:26;98827.72;;;14.83
73685;BMP280;61985;51.070;14.064;2023-04-16T13:53:53;98827.38;;;14.72
73685;BMP280;61985;51.070;14.064;2023-04-16T13:56:18;98830.09;;;14.72
73685;BMP280;61985;51.070;14.064;2023-04-16T13:58:51;98833.25;;;14.61
73685;BMP280;61985;51.070;14.064;2023-04-16T14:01:16;98834.44;;;14.51
73685;BMP280;61985;51.070;14.064;2023-04-16T14:03:42;98831.41;;;14.58
73685;BMP280;61985;51.070;14.064;2023-04-16T14:06:07;98829.28;;;14.53
73685;BMP280;61985;51.070;14.064;2023-04-16T14:08:32;98830.88;;;14.23
73685;BMP280;61985;51.070;14.064;2023-04-16T14:10:58;98831.13;;;14.16
73685;BMP280;61985;51.070;14.064;2023-04-16T14:13:23;98830.25;;;14.28